createdAt,value
2023-02-16T00:01:54.544Z,4.42
2023-02-16T00:04:26.873Z,4.44
2023-02-16T00:06:54.690Z,4.40
2023-02-16T00:09:22.967Z,4.36
2023-02-16T00:12:09.712Z,4.46
2023-02-16T00:14:38.701Z,4.32
2023-02-16T00:17:06.865Z,4.35
2023-02-16T00:19:39.051Z,4.18
2023-02-16T00:22:07.445Z,4.28
2023-02-16T00:24:34.828Z,4.20
2023-02-16T00:27:01.425Z,4.23
2023-02-16T00:29:31.605Z,4.08
2023-02-16T00:32:00.547Z,4.21
2023-02-16T00:34:27.205Z,4.16
2023-02-16T00:36:55.054Z,3.97
2023-02-16T00:39:25.010Z,4.16
2023-02-16T00:41:55.606Z,4.03
2023-02-16T00:44:44.100Z,3.97
2023-02-16T00:47:30.216Z,4.00
2023-02-16T00:49:57.076Z,3.92
2023-02-16T00:52:33.973Z,3.91
2023-02-16T00:55:02.505Z,3.84
2023-02-16T00:57:34.059Z,3.77
2023-02-16T01:00:06.320Z,3.80
2023-02-16T01:02:33.110Z,3.75
2023-02-16T01:04:59.693Z,3.74
2023-02-16T01:07:44.716Z,3.63
2023-02-16T01:10:30.537Z,3.57
2023-02-16T01:12:57.304Z,3.64
2023-02-16T01:15:25.915Z,3.50
2023-02-16T01:17:52.486Z,3.59
2023-02-16T01:20:24.756Z,3.60
2023-02-16T01:22:52.010Z,3.53
2023-02-16T01:25:18.708Z,3.38
2023-02-16T01:27:47.856Z,3.33
2023-02-16T01:30:19.800Z,3.21
2023-02-16T01:32:51.455Z,3.07
2023-02-16T01:35:24.273Z,2.85
2023-02-16T01:37:51.051Z,2.79
2023-02-16T01:40:28.947Z,2.83
2023-02-16T01:43:04.129Z,2.78
2023-02-16T01:45:38.244Z,2.77
2023-02-16T01:48:07.538Z,2.73
2023-02-16T01:50:52.625Z,2.63
2023-02-16T01:53:26.680Z,2.66
2023-02-16T01:56:00.227Z,2.76
2023-02-16T01:58:39.986Z,2.71
2023-02-16T02:01:24.383Z,2.58
2023-02-16T02:04:09.440Z,2.53
2023-02-16T02:06:37.302Z,2.60
2023-02-16T02:09:34.359Z,2.58
2023-02-16T02:12:26.485Z,2.43
2023-02-16T02:14:53.051Z,2.57
2023-02-16T02:17:21.426Z,2.53
2023-02-16T02:20:13.505Z,2.39
2023-02-16T02:23:17.259Z,2.36
2023-02-16T02:26:26.839Z,2.30
2023-02-16T02:28:56.386Z,2.31
2023-02-16T02:31:38.567Z,2.23
2023-02-16T02:34:40.739Z,2.28
2023-02-16T02:37:26.767Z,2.34
2023-02-16T02:40:22.678Z,2.33
2023-02-16T02:43:07.392Z,2.18
2023-02-16T02:45:38.646Z,2.13
2023-02-16T02:48:07.024Z,2.09
2023-02-16T02:51:09.501Z,2.13
2023-02-16T02:53:47.319Z,2.19
2023-02-16T02:56:35.466Z,2.24
2023-02-16T02:59:24.770Z,2.22
2023-02-16T03:01:58.124Z,2.07
2023-02-16T03:04:29.016Z,2.11
2023-02-16T03:06:58.292Z,2.08
2023-02-16T03:09:25.492Z,2.16
2023-02-16T03:12:14.133Z,2.22
2023-02-16T03:15:10.543Z,2.14
2023-02-16T03:17:58.588Z,2.01
2023-02-16T03:20:44.626Z,2.02
2023-02-16T03:23:31.132Z,2.03
2023-02-16T03:26:16.314Z,2.13
2023-02-16T03:29:03.334Z,2.15
2023-02-16T03:31:34.516Z,2.05
2023-02-16T03:34:02.579Z,2.08
2023-02-16T03:36:32.736Z,1.98
2023-02-16T03:38:59.788Z,1.92
2023-02-16T03:41:31.437Z,1.98
2023-02-16T03:43:58.126Z,2.04
2023-02-16T03:46:24.871Z,1.89
2023-02-16T03:48:51.468Z,1.85
2023-02-16T03:51:18.170Z,1.83
2023-02-16T03:53:44.750Z,1.85
2023-02-16T03:56:11.380Z,1.85
2023-02-16T03:58:37.935Z,2.00
2023-02-16T04:01:04.840Z,2.00
2023-02-16T04:03:31.670Z,2.00
2023-02-16T04:05:58.272Z,2.01
2023-02-16T04:08:24.839Z,2.01
2023-02-16T04:10:51.414Z,1.96
2023-02-16T04:13:18.115Z,1.86
2023-02-16T04:15:44.739Z,1.86
2023-02-16T04:18:11.337Z,1.80
2023-02-16T04:20:38.009Z,1.92
2023-02-16T04:23:04.816Z,1.94
2023-02-16T04:25:31.508Z,1.93
2023-02-16T04:27:58.339Z,1.94
2023-02-16T04:30:28.311Z,1.88
2023-02-16T04:32:55.497Z,1.83
2023-02-16T04:35:23.107Z,1.79
2023-02-16T04:37:49.790Z,1.86
2023-02-16T04:40:17.707Z,1.86
2023-02-16T04:42:45.584Z,1.88
2023-02-16T04:45:12.824Z,1.85
2023-02-16T04:47:39.778Z,1.65
2023-02-16T04:50:07.118Z,1.68
2023-02-16T04:52:34.251Z,1.69
2023-02-16T04:55:01.044Z,1.72
2023-02-16T04:57:27.996Z,1.63
2023-02-16T04:59:55.232Z,1.61
2023-02-16T05:02:22.027Z,1.51
2023-02-16T05:04:48.605Z,1.50
2023-02-16T05:07:15.299Z,1.53
2023-02-16T05:09:42.083Z,1.73
2023-02-16T05:12:29.329Z,1.72
2023-02-16T05:14:55.962Z,1.68
2023-02-16T05:17:24.765Z,1.63
2023-02-16T05:19:57.017Z,1.73
2023-02-16T05:22:24.814Z,1.69
2023-02-16T05:24:51.775Z,1.66
2023-02-16T05:27:24.317Z,1.74
2023-02-16T05:29:50.962Z,1.80
2023-02-16T05:32:17.883Z,1.89
2023-02-16T05:34:45.485Z,1.79
2023-02-16T05:37:14.049Z,1.77
2023-02-16T05:39:41.194Z,1.80
2023-02-16T05:42:08.284Z,1.74
2023-02-16T05:44:34.911Z,1.65
2023-02-16T05:47:01.606Z,1.52
2023-02-16T05:49:28.357Z,1.49
2023-02-16T05:51:55.044Z,1.62
2023-02-16T05:54:21.674Z,1.70
2023-02-16T05:56:50.886Z,1.73
2023-02-16T05:59:17.893Z,1.64
2023-02-16T06:01:49.388Z,1.65
2023-02-16T06:04:18.357Z,1.68
2023-02-16T06:06:45.053Z,1.57
2023-02-16T06:09:11.722Z,1.52
2023-02-16T06:11:38.535Z,1.48
2023-02-16T06:14:10.215Z,1.58
2023-02-16T06:16:39.703Z,1.58
2023-02-16T06:19:07.376Z,1.59
2023-02-16T06:21:34.936Z,1.56
2023-02-16T06:24:02.010Z,1.58
2023-02-16T06:26:28.721Z,1.56
2023-02-16T06:28:55.844Z,1.60
2023-02-16T06:31:23.687Z,1.70
2023-02-16T06:33:50.852Z,1.65
2023-02-16T06:36:18.344Z,1.68
2023-02-16T06:38:45.567Z,1.59
2023-02-16T06:41:12.414Z,1.61
2023-02-16T06:43:39.158Z,1.71
2023-02-16T06:46:05.958Z,1.66
2023-02-16T06:48:32.640Z,1.69
2023-02-16T06:50:59.301Z,1.62
2023-02-16T06:53:25.870Z,1.80
2023-02-16T06:55:52.517Z,1.86
2023-02-16T06:58:19.295Z,1.79
2023-02-16T07:00:46.296Z,1.76
2023-02-16T07:03:13.005Z,1.89
2023-02-16T07:05:39.712Z,1.93
2023-02-16T07:08:06.296Z,2.01
2023-02-16T07:10:48.579Z,2.06
2023-02-16T07:13:16.065Z,2.11
2023-02-16T07:15:42.619Z,2.20
2023-02-16T07:18:09.364Z,2.34
2023-02-16T07:20:35.962Z,2.39
2023-02-16T07:23:02.620Z,2.44
2023-02-16T07:25:29.405Z,2.59
2023-02-16T07:27:56.134Z,2.77
2023-02-16T07:30:22.914Z,2.69
2023-02-16T07:32:49.566Z,2.79
2023-02-16T07:35:16.159Z,2.97
2023-02-16T07:37:42.706Z,3.09
2023-02-16T07:40:10.253Z,3.09
2023-02-16T07:42:37.238Z,3.10
2023-02-16T07:45:04.218Z,3.17
2023-02-16T07:47:30.774Z,3.26
2023-02-16T07:49:57.340Z,3.39
2023-02-16T07:52:28.805Z,3.46
2023-02-16T07:54:55.316Z,3.56
2023-02-16T07:57:22.282Z,3.75
2023-02-16T07:59:52.494Z,3.66
2023-02-16T08:02:20.308Z,3.74
2023-02-16T08:04:48.488Z,3.88
2023-02-16T08:07:16.670Z,4.03
2023-02-16T08:09:43.326Z,4.05
2023-02-16T08:12:11.492Z,3.99
2023-02-16T08:14:39.054Z,4.09
2023-02-16T08:17:07.602Z,4.11
2023-02-16T08:19:34.656Z,4.09
2023-02-16T08:22:02.562Z,4.16
2023-02-16T08:24:29.552Z,4.21
2023-02-16T08:26:56.657Z,4.30
2023-02-16T08:29:23.979Z,4.45
2023-02-16T08:31:51.771Z,4.46
2023-02-16T08:34:20.431Z,4.48
2023-02-16T08:36:51.326Z,4.63
2023-02-16T08:39:20.853Z,4.75
2023-02-16T08:41:49.714Z,4.81
2023-02-16T08:44:18.385Z,4.83
2023-02-16T08:46:47.522Z,4.98
2023-02-16T08:49:17.291Z,4.98
2023-02-16T08:51:47.291Z,5.01
2023-02-16T08:54:19.833Z,5.20
2023-02-16T08:56:48.019Z,5.33
2023-02-16T08:59:17.341Z,5.51
2023-02-16T09:01:44.825Z,5.54
2023-02-16T09:04:13.044Z,5.54
2023-02-16T09:06:42.477Z,5.69
2023-02-16T09:09:09.928Z,5.80
2023-02-16T09:11:37.338Z,5.92
2023-02-16T09:14:04.998Z,6.00
2023-02-16T09:16:38.508Z,6.02
2023-02-16T09:19:06.638Z,6.19
2023-02-16T09:21:33.669Z,6.38
2023-02-16T09:24:03.360Z,6.49
2023-02-16T09:26:38.434Z,6.62
2023-02-16T09:29:07.023Z,6.67
2023-02-16T09:31:37.323Z,6.57
2023-02-16T09:34:16.003Z,6.84
2023-02-16T09:36:43.096Z,6.93
2023-02-16T09:39:09.979Z,6.94
2023-02-16T09:41:45.364Z,7.16
2023-02-16T09:44:53.355Z,7.09
2023-02-16T09:47:26.223Z,7.25
2023-02-16T09:49:56.423Z,7.37
2023-02-16T09:52:40.412Z,7.46
2023-02-16T09:55:18.523Z,7.57
2023-02-16T09:57:55.622Z,7.64
2023-02-16T10:00:34.403Z,7.69
2023-02-16T10:03:26.596Z,7.71
2023-02-16T10:06:29.288Z,7.84
2023-02-16T10:09:00.459Z,7.87
2023-02-16T10:11:38.747Z,8.02
2023-02-16T10:14:18.562Z,8.03
2023-02-16T10:16:59.046Z,7.98
2023-02-16T10:19:36.139Z,7.99
2023-02-16T10:22:06.776Z,8.03
2023-02-16T10:24:51.430Z,8.22
2023-02-16T10:27:32.715Z,8.43
2023-02-16T10:29:59.368Z,8.34
2023-02-16T10:32:30.484Z,8.28
2023-02-16T10:35:11.530Z,8.59
2023-02-16T10:37:59.148Z,8.65
2023-02-16T10:40:46.558Z,8.81
2023-02-16T10:43:37.227Z,8.97
2023-02-16T10:46:05.948Z,8.99
2023-02-16T10:48:33.261Z,9.10
2023-02-16T10:51:06.320Z,9.16
2023-02-16T10:53:56.990Z,9.42
2023-02-16T10:56:31.876Z,9.51
2023-02-16T10:59:00.747Z,9.33
2023-02-16T11:01:36.168Z,9.38
2023-02-16T11:04:03.827Z,9.54
2023-02-16T11:06:30.881Z,9.70
2023-02-16T11:09:01.071Z,9.84
2023-02-16T11:11:38.650Z,9.85
2023-02-16T11:14:09.164Z,10.01
2023-02-16T11:16:36.006Z,10.12
2023-02-16T11:19:07.672Z,9.97
2023-02-16T11:21:55.184Z,9.97
2023-02-16T11:24:33.236Z,10.18
2023-02-16T11:27:22.878Z,10.24
2023-02-16T11:29:50.768Z,10.12
2023-02-16T11:32:21.380Z,10.20
2023-02-16T11:34:52.976Z,10.41
2023-02-16T11:37:22.431Z,10.45
2023-02-16T11:39:55.630Z,10.33
2023-02-16T11:42:34.891Z,10.49
2023-02-16T11:45:04.897Z,10.51
2023-02-16T11:47:38.198Z,10.55
2023-02-16T11:50:20.983Z,10.59
2023-02-16T11:52:53.092Z,10.41
2023-02-16T11:55:33.316Z,10.68
2023-02-16T11:58:20.117Z,10.74
2023-02-16T12:01:12.953Z,10.76
2023-02-16T12:04:12.837Z,10.51
2023-02-16T12:06:55.194Z,10.65
2023-02-16T12:09:29.532Z,10.89
2023-02-16T12:12:20.954Z,10.82
2023-02-16T12:15:03.429Z,11.05
2023-02-16T12:17:56.912Z,11.13
2023-02-16T12:20:39.091Z,11.27
2023-02-16T12:23:53.594Z,11.24
2023-02-16T12:26:38.252Z,11.47
2023-02-16T12:29:23.745Z,11.62
2023-02-16T12:32:01.980Z,11.68
2023-02-16T12:34:43.991Z,11.84
2023-02-16T12:37:33.442Z,11.70
2023-02-16T12:40:36.658Z,11.40
2023-02-16T12:43:25.039Z,11.57
2023-02-16T12:45:54.164Z,11.51
2023-02-16T12:48:30.258Z,11.67
2023-02-16T12:50:58.832Z,11.54
2023-02-16T12:53:36.255Z,11.41
2023-02-16T12:56:08.234Z,11.48
2023-02-16T12:58:39.477Z,11.10
2023-02-16T13:01:21.711Z,11.23
2023-02-16T13:04:07.948Z,11.11
2023-02-16T13:06:47.151Z,11.09
2023-02-16T13:09:50.737Z,11.10
2023-02-16T13:12:32.659Z,11.18
2023-02-16T13:15:06.409Z,11.26
2023-02-16T13:17:55.994Z,11.25
2023-02-16T13:20:23.406Z,11.07
2023-02-16T13:22:54.699Z,11.12
2023-02-16T13:25:30.032Z,11.08
2023-02-16T13:28:24.028Z,11.08
2023-02-16T13:31:32.312Z,10.98
2023-02-16T13:34:20.264Z,10.93
2023-02-16T13:37:02.908Z,11.11
2023-02-16T13:39:51.237Z,10.88
2023-02-16T13:42:42.629Z,10.89
2023-02-16T13:45:20.004Z,11.02
2023-02-16T13:47:46.787Z,11.22
2023-02-16T13:50:22.374Z,11.39
2023-02-16T13:52:51.907Z,11.34
2023-02-16T13:55:31.953Z,11.25
2023-02-16T13:58:09.347Z,11.40
2023-02-16T14:00:47.829Z,11.15
2023-02-16T14:03:17.623Z,11.39
2023-02-16T14:05:46.999Z,11.36
2023-02-16T14:08:19.819Z,11.24
2023-02-16T14:10:53.115Z,11.44
2023-02-16T14:13:37.798Z,11.35
2023-02-16T14:16:22.453Z,11.38
2023-02-16T14:18:56.982Z,11.07
2023-02-16T14:21:41.159Z,11.40
2023-02-16T14:24:13.617Z,11.36
2023-02-16T14:26:59.546Z,11.17
2023-02-16T14:29:40.745Z,11.05
2023-02-16T14:32:13.787Z,11.18
2023-02-16T14:34:50.747Z,10.97
2023-02-16T14:37:17.310Z,10.90
2023-02-16T14:40:06.629Z,11.09
2023-02-16T14:42:35.722Z,10.90
2023-02-16T14:45:08.561Z,10.77
2023-02-16T14:47:40.441Z,10.76
2023-02-16T14:50:18.061Z,10.76
2023-02-16T14:52:50.632Z,10.67
2023-02-16T14:56:03.204Z,10.60
2023-02-16T14:58:52.070Z,10.64
2023-02-16T15:01:21.438Z,10.51
2023-02-16T15:03:51.513Z,10.66
2023-02-16T15:06:23.260Z,10.66
2023-02-16T15:08:58.554Z,10.60
2023-02-16T15:11:30.643Z,10.57
2023-02-16T15:14:25.529Z,10.57
2023-02-16T15:16:54.192Z,10.59
2023-02-16T15:19:28.721Z,10.59
2023-02-16T15:22:28.828Z,10.56
2023-02-16T15:25:04.921Z,10.68
2023-02-16T15:27:35.071Z,10.69
2023-02-16T15:30:22.840Z,10.53
2023-02-16T15:32:56.243Z,10.69
2023-02-16T15:35:27.628Z,10.74
2023-02-16T15:38:20.979Z,10.69
2023-02-16T15:40:51.752Z,10.74
2023-02-16T15:43:26.984Z,10.65
2023-02-16T15:45:55.089Z,10.87
2023-02-16T15:48:29.590Z,10.92
2023-02-16T15:51:20.551Z,10.95
2023-02-16T15:53:51.529Z,10.97
2023-02-16T15:56:31.551Z,10.90
2023-02-16T15:59:02.274Z,10.92
2023-02-16T16:01:37.281Z,10.92
2023-02-16T16:04:24.479Z,10.96
2023-02-16T16:06:52.599Z,10.99
2023-02-16T16:09:31.406Z,11.01
2023-02-16T16:12:08.368Z,10.87
2023-02-16T16:14:50.702Z,10.90
2023-02-16T16:17:21.507Z,11.07
2023-02-16T16:19:48.913Z,11.06
2023-02-16T16:22:31.969Z,10.91
2023-02-16T16:24:59.779Z,10.93
2023-02-16T16:27:36.760Z,10.90
2023-02-16T16:30:33.082Z,10.81
2023-02-16T16:33:09.257Z,10.72
2023-02-16T16:35:38.021Z,10.78
2023-02-16T16:38:07.351Z,10.81
2023-02-16T16:40:36.476Z,10.64
2023-02-16T16:43:03.492Z,10.75
2023-02-16T16:45:44.621Z,10.79
2023-02-16T16:48:31.106Z,10.72
2023-02-16T16:51:18.115Z,10.65
2023-02-16T16:53:53.123Z,10.70
2023-02-16T16:56:21.295Z,10.65
2023-02-16T16:58:50.471Z,10.58
2023-02-16T17:01:18.570Z,10.52
2023-02-16T17:03:45.764Z,10.54
2023-02-16T17:06:14.347Z,10.53
2023-02-16T17:08:42.173Z,10.45
2023-02-16T17:11:29.707Z,10.40
2023-02-16T17:13:58.784Z,10.34
2023-02-16T17:16:33.266Z,10.41
2023-02-16T17:19:00.303Z,10.40
2023-02-16T17:21:27.348Z,10.49
2023-02-16T17:23:54.502Z,10.48
2023-02-16T17:26:24.927Z,10.44
2023-02-16T17:28:52.292Z,10.38
2023-02-16T17:31:19.322Z,10.44
2023-02-16T17:33:46.439Z,10.35
2023-02-16T17:36:15.546Z,10.38
2023-02-16T17:38:43.554Z,10.32
2023-02-16T17:41:29.963Z,10.36
2023-02-16T17:43:57.125Z,10.26
2023-02-16T17:46:25.722Z,10.33
2023-02-16T17:48:55.517Z,10.38
2023-02-16T17:51:26.227Z,10.40
2023-02-16T17:53:53.262Z,10.36
2023-02-16T17:56:23.078Z,10.33
2023-02-16T17:58:50.917Z,10.11
2023-02-16T18:01:19.315Z,10.30
2023-02-16T18:03:46.692Z,10.36
2023-02-16T18:06:15.677Z,10.39
2023-02-16T18:08:43.326Z,10.35
2023-02-16T18:11:10.800Z,10.59
2023-02-16T18:13:38.002Z,10.52
2023-02-16T18:16:07.634Z,10.49
2023-02-16T18:18:36.908Z,10.48
2023-02-16T18:21:04.129Z,10.45
2023-02-16T18:23:31.425Z,10.48
2023-02-16T18:25:58.573Z,10.49
2023-02-16T18:28:29.636Z,10.56
2023-02-16T18:30:57.229Z,10.55
2023-02-16T18:33:25.835Z,10.63
2023-02-16T18:35:55.780Z,10.53
2023-02-16T18:38:23.407Z,10.63
2023-02-16T18:40:53.206Z,10.62
2023-02-16T18:43:21.301Z,10.59
2023-02-16T18:45:49.227Z,10.52
2023-02-16T18:48:16.506Z,10.62
2023-02-16T18:50:43.623Z,10.68
2023-02-16T18:53:10.846Z,10.35
2023-02-16T18:55:37.847Z,10.44
2023-02-16T18:58:08.094Z,10.57
2023-02-16T19:00:37.006Z,10.51
2023-02-16T19:03:04.578Z,10.38
2023-02-16T19:05:32.222Z,10.14
2023-02-16T19:07:59.346Z,10.17
2023-02-16T19:10:26.370Z,10.26
2023-02-16T19:12:53.532Z,10.28
2023-02-16T19:15:20.681Z,10.29
2023-02-16T19:17:48.304Z,10.48
2023-02-16T19:20:18.140Z,10.48
2023-02-16T19:22:46.216Z,10.49
2023-02-16T19:25:13.571Z,10.46
2023-02-16T19:27:40.731Z,10.33
2023-02-16T19:30:08.315Z,10.43
2023-02-16T19:32:35.665Z,10.46
2023-02-16T19:35:03.669Z,10.54
2023-02-16T19:37:30.435Z,10.54
2023-02-16T19:39:57.008Z,10.57
2023-02-16T19:42:23.705Z,10.39
2023-02-16T19:44:50.625Z,10.20
2023-02-16T19:47:17.330Z,10.15
2023-02-16T19:49:43.892Z,10.47
2023-02-16T19:52:11.281Z,10.20
2023-02-16T19:54:37.993Z,10.11
2023-02-16T19:57:05.092Z,10.21
2023-02-16T19:59:32.718Z,10.13
2023-02-16T20:01:59.376Z,10.13
2023-02-16T20:04:26.508Z,10.17
2023-02-16T20:06:54.544Z,10.26
2023-02-16T20:09:22.014Z,9.95
2023-02-16T20:11:49.024Z,10.11
2023-02-16T20:14:15.687Z,10.05
2023-02-16T20:16:42.325Z,10.07
2023-02-16T20:19:09.007Z,10.03
2023-02-16T20:21:35.593Z,9.96
2023-02-16T20:24:05.032Z,9.97
2023-02-16T20:26:34.612Z,10.12
2023-02-16T20:29:01.684Z,9.90
2023-02-16T20:31:40.858Z,9.90
2023-02-16T20:34:08.155Z,9.96
2023-02-16T20:36:35.949Z,10.17
2023-02-16T20:39:04.549Z,10.05
2023-02-16T20:41:31.176Z,9.93
2023-02-16T20:43:57.787Z,10.03
2023-02-16T20:46:24.896Z,10.02
2023-02-16T20:48:52.059Z,9.91
2023-02-16T20:51:19.718Z,10.00
2023-02-16T20:53:46.484Z,9.97
2023-02-16T20:56:22.140Z,9.86
2023-02-16T20:58:50.485Z,9.98
2023-02-16T21:01:24.201Z,10.03
2023-02-16T21:03:52.772Z,9.86
2023-02-16T21:06:19.669Z,9.80
2023-02-16T21:08:47.126Z,9.81
2023-02-16T21:11:14.493Z,9.78
2023-02-16T21:13:41.436Z,9.92
2023-02-16T21:16:08.804Z,9.96
2023-02-16T21:18:36.870Z,9.88
2023-02-16T21:21:04.527Z,9.72
2023-02-16T21:23:31.191Z,9.79
2023-02-16T21:26:00.466Z,9.65
2023-02-16T21:28:27.516Z,9.86
2023-02-16T21:30:54.815Z,9.76
2023-02-16T21:33:21.789Z,9.70
2023-02-16T21:35:48.324Z,9.75
2023-02-16T21:38:15.090Z,9.73
2023-02-16T21:41:00.163Z,9.80
2023-02-16T21:43:26.786Z,9.63
2023-02-16T21:46:03.049Z,9.63
2023-02-16T21:48:48.199Z,9.75
2023-02-16T21:51:20.575Z,9.64
2023-02-16T21:53:47.305Z,9.55
2023-02-16T21:56:25.519Z,9.62
2023-02-16T21:58:52.113Z,9.78
2023-02-16T22:01:24.749Z,9.57
2023-02-16T22:03:56.159Z,9.41
2023-02-16T22:06:24.739Z,9.51
2023-02-16T22:08:51.447Z,9.49
2023-02-16T22:11:18.108Z,9.57
2023-02-16T22:13:44.724Z,9.51
2023-02-16T22:16:13.753Z,9.59
2023-02-16T22:18:40.881Z,9.57
2023-02-16T22:21:08.767Z,9.61
2023-02-16T22:23:37.076Z,9.62
2023-02-16T22:26:06.197Z,9.52
2023-02-16T22:28:34.123Z,9.44
2023-02-16T22:31:07.084Z,9.58
2023-02-16T22:33:33.901Z,9.50
2023-02-16T22:36:06.942Z,9.55
2023-02-16T22:38:34.070Z,9.55
2023-02-16T22:41:04.526Z,9.51
2023-02-16T22:43:31.133Z,9.52
2023-02-16T22:45:57.748Z,9.49
2023-02-16T22:48:24.377Z,9.60
2023-02-16T22:50:59.223Z,9.48
2023-02-16T22:53:27.009Z,9.50
2023-02-16T22:55:54.703Z,9.57
2023-02-16T22:58:22.339Z,9.62
2023-02-16T23:00:50.082Z,9.75
2023-02-16T23:03:17.042Z,9.61
2023-02-16T23:05:43.648Z,9.62
2023-02-16T23:08:11.566Z,9.69
2023-02-16T23:10:39.983Z,9.75
2023-02-16T23:13:08.909Z,9.67
2023-02-16T23:15:36.139Z,9.73
2023-02-16T23:18:02.995Z,9.67
2023-02-16T23:20:29.648Z,9.52
2023-02-16T23:22:56.238Z,9.72
2023-02-16T23:25:35.053Z,9.51
2023-02-16T23:28:03.490Z,9.66
2023-02-16T23:30:31.158Z,9.61
2023-02-16T23:32:57.862Z,9.70
2023-02-16T23:35:24.604Z,9.67
2023-02-16T23:37:51.205Z,9.65
2023-02-16T23:40:17.830Z,9.89
2023-02-16T23:42:44.400Z,9.65
2023-02-16T23:45:10.992Z,9.90
2023-02-16T23:47:37.582Z,9.95
2023-02-16T23:50:04.696Z,9.75
2023-02-16T23:52:31.214Z,9.75
2023-02-16T23:54:57.874Z,9.66
2023-02-16T23:57:24.471Z,9.54
2023-02-16T23:59:51.021Z,9.78
